createdAt,value
2023-01-23T00:02:57.895Z,1.20
2023-01-23T00:07:59.787Z,1.20
2023-01-23T00:13:01.615Z,1.20
2023-01-23T00:18:03.453Z,1.10
2023-01-23T00:23:05.327Z,1.20
2023-01-23T00:28:07.168Z,1.20
2023-01-23T00:33:10.060Z,1.20
2023-01-23T00:38:11.919Z,1.20
2023-01-23T00:43:13.747Z,1.20
2023-01-23T00:48:15.686Z,1.20
2023-01-23T00:53:17.602Z,1.30
2023-01-23T00:58:19.476Z,1.30
2023-01-23T01:03:21.344Z,1.20
2023-01-23T01:08:23.347Z,1.20
2023-01-23T01:13:25.509Z,1.20
2023-01-23T01:18:28.008Z,1.30
2023-01-23T01:23:29.983Z,1.20
2023-01-23T01:28:33.207Z,1.20
2023-01-23T01:33:35.137Z,1.20
2023-01-23T01:38:37.104Z,1.30
2023-01-23T01:43:39.152Z,1.30
2023-01-23T01:49:02.449Z,1.30
2023-01-23T01:54:10.676Z,1.30
2023-01-23T01:59:13.484Z,1.30
2023-01-23T02:04:15.733Z,1.30
2023-01-23T02:09:21.750Z,1.30
2023-01-23T02:14:25.758Z,1.40
2023-01-23T02:19:27.576Z,1.30
2023-01-23T02:24:34.958Z,1.30
2023-01-23T02:29:41.570Z,1.30
2023-01-23T02:34:43.647Z,1.30
2023-01-23T02:39:45.652Z,1.30
2023-01-23T02:44:47.536Z,1.30
2023-01-23T02:49:49.380Z,1.20
2023-01-23T02:54:51.404Z,1.20
2023-01-23T03:00:11.946Z,1.20
2023-01-23T03:05:14.302Z,1.20
2023-01-23T03:10:16.667Z,1.10
2023-01-23T03:15:18.511Z,1.20
2023-01-23T03:20:23.665Z,1.20
2023-01-23T03:25:25.524Z,1.10
2023-01-23T03:30:27.419Z,1.10
2023-01-23T03:35:30.024Z,1.20
2023-01-23T03:40:50.534Z,1.20
2023-01-23T03:45:54.839Z,1.10
2023-01-23T03:50:56.694Z,1.10
2023-01-23T03:55:58.605Z,1.10
2023-01-23T04:01:03.510Z,1.00
2023-01-23T04:06:05.820Z,1.00
2023-01-23T04:11:09.659Z,1.00
2023-01-23T04:16:11.538Z,1.00
2023-01-23T04:21:13.409Z,0.90
2023-01-23T04:26:24.707Z,1.00
2023-01-23T04:31:26.651Z,0.90
2023-01-23T04:36:28.532Z,1.00
2023-01-23T04:41:33.454Z,1.00
2023-01-23T04:46:35.459Z,1.00
2023-01-23T04:51:37.778Z,0.90
2023-01-23T04:56:40.001Z,1.00
2023-01-23T05:01:42.173Z,1.00
2023-01-23T05:06:43.992Z,1.00
2023-01-23T05:11:45.959Z,1.00
2023-01-23T05:16:47.865Z,1.00
2023-01-23T05:21:49.795Z,1.00
2023-01-23T05:26:51.606Z,1.00
2023-01-23T05:31:53.498Z,1.00
2023-01-23T05:36:55.333Z,1.00
2023-01-23T05:41:57.153Z,1.00
2023-01-23T05:46:58.987Z,1.00
2023-01-23T05:52:00.855Z,1.00
2023-01-23T05:57:02.700Z,1.00
2023-01-23T06:02:04.957Z,1.00
2023-01-23T06:07:10.177Z,0.90
2023-01-23T06:12:12.562Z,1.00
2023-01-23T06:17:14.858Z,1.00
2023-01-23T06:22:16.841Z,1.00
2023-01-23T06:27:18.886Z,1.10
2023-01-23T06:32:20.829Z,1.10
2023-01-23T06:37:25.662Z,1.10
2023-01-23T06:42:28.806Z,1.10
2023-01-23T06:47:30.619Z,1.10
2023-01-23T06:52:32.546Z,1.10
2023-01-23T06:57:34.643Z,1.20
2023-01-23T07:02:38.062Z,1.20
2023-01-23T07:07:39.957Z,1.20
2023-01-23T07:12:41.908Z,1.20
2023-01-23T07:17:43.791Z,1.30
2023-01-23T07:22:45.662Z,1.30
2023-01-23T07:27:47.782Z,1.40
2023-01-23T07:32:49.873Z,1.40
2023-01-23T07:37:51.800Z,1.40
2023-01-23T07:42:57.000Z,1.40
2023-01-23T07:47:58.804Z,1.50
2023-01-23T07:53:01.893Z,1.50
2023-01-23T07:58:03.716Z,1.50
2023-01-23T08:03:05.574Z,1.50
2023-01-23T08:08:13.542Z,1.60
2023-01-23T08:13:16.147Z,1.60
2023-01-23T08:18:18.007Z,1.70
2023-01-23T08:23:20.159Z,1.70
2023-01-23T08:28:24.261Z,1.70
2023-01-23T08:33:26.200Z,1.80
2023-01-23T08:38:28.057Z,1.90
2023-01-23T08:43:30.689Z,2.00
2023-01-23T08:48:34.204Z,2.10
2023-01-23T08:53:36.723Z,2.10
2023-01-23T08:58:38.562Z,2.00
2023-01-23T09:03:40.541Z,1.90
2023-01-23T09:08:42.407Z,1.80
2023-01-23T09:13:46.128Z,1.80
2023-01-23T09:18:47.989Z,1.80
2023-01-23T09:23:49.918Z,1.80
2023-01-23T09:28:51.733Z,1.80
2023-01-23T09:33:53.566Z,1.90
2023-01-23T09:38:55.417Z,1.90
2023-01-23T09:43:58.685Z,1.90
2023-01-23T09:49:18.860Z,2.00
2023-01-23T09:54:23.284Z,2.10
2023-01-23T09:59:53.941Z,2.20
2023-01-23T10:05:02.965Z,2.30
2023-01-23T10:10:30.323Z,2.40
2023-01-23T10:16:10.081Z,2.40
2023-01-23T10:21:20.741Z,2.40
2023-01-23T10:26:26.473Z,2.40
2023-01-23T10:31:38.542Z,2.40
2023-01-23T10:36:55.135Z,2.40
2023-01-23T10:42:02.466Z,2.40
2023-01-23T10:47:18.246Z,2.40
2023-01-23T10:52:29.109Z,2.50
2023-01-23T10:57:38.379Z,2.50
2023-01-23T11:02:41.051Z,2.60
2023-01-23T11:07:53.847Z,2.60
2023-01-23T11:12:56.066Z,2.70
2023-01-23T11:17:59.632Z,2.80
2023-01-23T11:23:06.166Z,2.90
2023-01-23T11:28:19.261Z,3.00
2023-01-23T11:33:47.773Z,3.10
2023-01-23T11:38:58.790Z,3.20
2023-01-23T11:44:08.038Z,3.30
2023-01-23T11:49:24.654Z,3.40
2023-01-23T11:55:04.007Z,3.40
2023-01-23T12:00:24.215Z,3.40
2023-01-23T12:05:37.555Z,3.40
2023-01-23T12:10:50.180Z,3.40
2023-01-23T12:16:04.290Z,3.30
2023-01-23T12:21:22.851Z,3.40
2023-01-23T12:26:25.862Z,3.50
2023-01-23T12:31:37.437Z,3.60
2023-01-23T12:36:48.595Z,3.60
2023-01-23T12:42:16.396Z,3.70
2023-01-23T12:47:26.035Z,3.80
2023-01-23T12:52:35.860Z,3.90
2023-01-23T13:03:13.526Z,4.00
2023-01-23T13:08:37.840Z,4.00
2023-01-23T13:13:40.587Z,4.10
2023-01-23T13:19:12.626Z,4.20
2023-01-23T13:24:56.674Z,4.30
2023-01-23T13:29:58.921Z,4.30
2023-01-23T13:35:02.101Z,4.30
2023-01-23T13:40:22.117Z,4.30
2023-01-23T13:45:29.091Z,4.30
2023-01-23T14:23:00.352Z,4.00
2023-01-23T14:28:05.667Z,3.90
2023-01-23T14:33:11.602Z,3.80
2023-01-23T14:38:27.388Z,3.80
2023-01-23T14:43:29.678Z,3.70
2023-01-23T14:48:38.418Z,3.60
2023-01-23T14:53:41.584Z,3.60
2023-01-23T14:58:43.516Z,3.50
2023-01-23T15:04:02.180Z,3.40
2023-01-23T15:09:29.358Z,3.40
2023-01-23T15:14:40.039Z,3.40
2023-01-23T15:19:41.967Z,3.40
2023-01-23T15:24:44.181Z,3.30
2023-01-23T15:29:46.222Z,3.20
2023-01-23T15:34:56.152Z,3.10
2023-01-23T15:40:02.479Z,3.00
2023-01-23T15:45:14.412Z,3.00
2023-01-23T15:50:16.436Z,2.90
2023-01-23T15:55:19.145Z,2.90
2023-01-23T16:00:26.454Z,2.80
2023-01-23T16:05:38.613Z,2.80
2023-01-23T16:10:40.871Z,2.80
2023-01-23T16:15:43.447Z,2.70
2023-01-23T16:20:45.763Z,2.80
2023-01-23T16:25:48.733Z,2.70
2023-01-23T16:30:51.879Z,2.70
2023-01-23T16:35:55.439Z,2.70
2023-01-23T16:40:59.652Z,2.70
2023-01-23T16:46:02.409Z,2.70
2023-01-23T16:51:24.213Z,2.60
2023-01-23T16:56:34.764Z,2.60
2023-01-23T17:01:40.428Z,2.60
2023-01-23T17:06:42.440Z,2.50
2023-01-23T17:11:51.482Z,2.50
2023-01-23T17:16:56.771Z,2.50
2023-01-23T17:22:00.690Z,2.50
2023-01-23T17:27:02.522Z,2.50
2023-01-23T17:32:04.991Z,2.50
2023-01-23T17:37:16.945Z,2.60
2023-01-23T17:42:22.983Z,2.60
2023-01-23T17:47:33.521Z,2.60
2023-01-23T17:52:53.426Z,2.60
2023-01-23T17:57:55.453Z,2.70
2023-01-23T18:02:59.162Z,2.60
2023-01-23T18:08:19.880Z,2.60
2023-01-23T18:13:36.839Z,2.60
2023-01-23T18:18:40.576Z,2.60
2023-01-23T18:23:42.838Z,2.60
2023-01-23T18:29:17.532Z,2.60
2023-01-23T18:34:47.235Z,2.60
2023-01-23T18:40:01.700Z,2.60
2023-01-23T18:45:09.649Z,2.60
2023-01-23T18:50:19.534Z,2.60
2023-01-23T18:55:33.010Z,2.60
2023-01-23T19:00:45.298Z,2.60
2023-01-23T19:05:47.524Z,2.60
2023-01-23T19:10:49.984Z,2.60
2023-01-23T19:16:01.185Z,2.60
2023-01-23T19:21:15.300Z,2.50
2023-01-23T19:26:18.151Z,2.50
2023-01-23T19:31:25.380Z,2.50
2023-01-23T19:36:30.351Z,2.50
2023-01-23T19:41:48.452Z,2.40
2023-01-23T19:46:50.375Z,2.40
2023-01-23T19:51:56.231Z,2.40
2023-01-23T19:56:58.382Z,2.40
2023-01-23T20:02:01.142Z,2.50
2023-01-23T20:07:02.978Z,2.40
2023-01-23T20:12:05.553Z,2.40
2023-01-23T20:17:07.462Z,2.50
2023-01-23T20:22:09.404Z,2.40
2023-01-23T20:27:11.247Z,2.50
2023-01-23T20:32:13.269Z,2.40
2023-01-23T20:37:15.601Z,2.40
2023-01-23T20:42:17.441Z,2.40
2023-01-23T20:47:19.325Z,2.30
2023-01-23T20:52:56.701Z,2.30
2023-01-23T20:58:16.861Z,2.30
2023-01-23T21:03:18.716Z,2.30
2023-01-23T21:08:20.532Z,2.30
2023-01-23T21:13:22.385Z,2.30
2023-01-23T21:18:24.282Z,2.30
2023-01-23T21:23:26.103Z,2.30
2023-01-23T21:28:29.595Z,2.30
2023-01-23T21:33:31.986Z,2.20
2023-01-23T21:38:33.891Z,2.20
2023-01-23T21:43:35.903Z,2.20
2023-01-23T21:48:38.880Z,2.10
2023-01-23T21:53:42.411Z,2.20
2023-01-23T21:58:44.413Z,2.20
2023-01-23T22:03:47.005Z,2.20
2023-01-23T22:08:48.935Z,2.10
2023-01-23T22:13:51.206Z,2.10
2023-01-23T22:18:53.103Z,2.10
2023-01-23T22:23:54.974Z,2.00
2023-01-23T22:28:56.892Z,2.00
2023-01-23T22:33:59.000Z,2.00
2023-01-23T22:39:00.931Z,2.00
2023-01-23T22:44:02.849Z,1.90
2023-01-23T22:49:05.065Z,1.90
2023-01-23T22:54:06.945Z,1.90
2023-01-23T22:59:08.934Z,1.90
2023-01-23T23:04:11.371Z,1.90
2023-01-23T23:09:15.055Z,1.90
2023-01-23T23:14:16.964Z,1.80
2023-01-23T23:19:18.791Z,1.80
2023-01-23T23:24:20.717Z,1.80
2023-01-23T23:29:23.741Z,1.80
2023-01-23T23:34:25.596Z,1.70
2023-01-23T23:39:27.495Z,1.70
2023-01-23T23:44:29.325Z,1.70
2023-01-23T23:49:31.141Z,1.70
2023-01-23T23:54:32.988Z,1.80
2023-01-23T23:59:34.811Z,1.70
